Time;durP1;ratioP1;P1;durP2;ratioP2;P2;SDS_P1;SDS_P2;PMS_P1;PMS_P2;Temp;Humidity;BMP_temperature;BMP_pressure;BME280_temperature;BME280_humidity;BME280_pressure;Samples;Min_cycle;Max_cycle;Signal;HPM_P1;HPM_P2
2021/06/29 08:27:36;;;;;;;9.98;4.38;;;;;;;;;;5048885;28;20437;-60
2021/06/29 08:30:02;;;;;;;;;;;;;;;;;;5032621;28;20041;-60
2021/06/29 09:27:42;;;;;;;8.13;3.63;;;;;;;;;;5087318;27;20423;-61
2021/06/29 09:30:30;;;;;;;10.13;3.75;;;;;;;;;;5087575;28;20036;-61
2021/06/29 09:32:58;;;;;;;9.00;4.05;;;;;;;;;;5084201;28;20044;-61
2021/06/29 09:35:28;;;;;;;7.88;3.15;;;;;;;;;;5083398;28;20048;-61
2021/06/29 09:37:58;;;;;;;7.18;2.65;;;;;;;;;;5085309;28;20114;-61
2021/06/29 09:40:29;;;;;;;7.20;2.92;;;;;;;;;;5085852;28;20048;-61
2021/06/29 09:43:13;;;;;;;6.90;3.30;;;;;;;;;;5085219;28;20539;-61
2021/06/29 09:45:46;;;;;;;9.32;3.25;;;;;;;;;;5083391;28;20496;-61
2021/06/29 09:48:16;;;;;;;6.35;3.22;;;;;;;;;;5086433;28;20044;-61
2021/06/29 09:50:46;;;;;;;4.60;2.95;;;;;;;;;;5086358;28;20151;-61
2021/06/29 09:53:24;;;;;;;6.78;3.00;;;;;;;;;;5085363;28;20495;-61
2021/06/29 09:55:54;;;;;;;7.47;2.80;;;;;;;;;;5084382;28;20040;-61
2021/06/29 09:58:21;;;;;;;8.32;3.13;;;;;;;;;;5084345;28;20060;-61
2021/06/29 10:00:49;;;;;;;7.85;3.25;;;;;;;;;;5085692;28;20028;-61
2021/06/29 10:03:24;;;;;;;6.35;3.25;;;;;;;;;;5085117;28;20040;-62
2021/06/29 10:05:52;;;;;;;8.27;3.38;;;;;;;;;;5083924;28;20068;-61
2021/06/29 10:08:26;;;;;;;13.10;3.55;;;;;;;;;;5084586;28;20036;-61
2021/06/29 10:11:03;;;;;;;9.15;3.55;;;;;;;;;;5084707;28;20036;-59
2021/06/29 10:13:37;;;;;;;7.17;3.00;;;;;;;;;;5084076;28;20533;-59
2021/06/29 10:16:06;;;;;;;10.82;4.00;;;;;;;;;;5084793;28;20309;-59
2021/06/29 10:18:36;;;;;;;11.15;3.80;;;;;;;;;;5084883;28;20123;-59
2021/06/29 10:21:14;;;;;;;5.50;3.30;;;;;;;;;;5080028;28;20059;-59
2021/06/29 10:23:42;;;;;;;7.13;3.40;;;;;;;;;;5085647;28;20036;-59
2021/06/29 10:26:09;;;;;;;8.47;3.47;;;;;;;;;;5083070;28;20133;-59
2021/06/29 10:28:36;;;;;;;8.73;3.72;;;;;;;;;;5084076;28;20294;-59
2021/06/29 10:31:04;;;;;;;14.73;4.25;;;;;;;;;;5081241;28;20670;-59
2021/06/29 10:33:32;;;;;;;12.15;3.92;;;;;;;;;;5080487;28;20044;-58
2021/06/29 10:35:58;;;;;;;;;;;;;;;;;;5082925;28;20736;-59
2021/06/29 10:38:26;;;;;;;9.82;3.88;;;;;;;;;;5072145;28;19927;-59
2021/06/29 10:40:54;;;;;;;10.02;3.88;;;;;;;;;;5068527;28;20041;-59
2021/06/29 10:43:20;;;;;;;;;;;;;;;;;;5071238;28;20033;-59
2021/06/29 10:45:52;;;;;;;13.98;4.07;;;;;;;;;;5071722;28;19947;-59
2021/06/29 10:48:19;;;;;;;7.72;3.17;;;;;;;;;;5069606;28;20550;-59
2021/06/29 10:50:47;;;;;;;5.20;2.40;;;;;;;;;;5072294;28;20067;-59
2021/06/29 10:53:32;;;;;;;4.55;2.22;;;;;;;;;;5070134;28;20102;-59
2021/06/29 10:56:01;;;;;;;3.80;2.47;;;;;;;;;;5067978;28;20045;-59
2021/06/29 10:58:35;;;;;;;7.38;2.40;;;;;;;;;;5070071;28;20047;-59
2021/06/29 11:01:22;;;;;;;5.25;1.85;;;;;;;;;;5069623;28;20492;-60
2021/06/29 11:03:49;;;;;;;3.88;1.90;;;;;;;;;;5068932;28;20045;-59
2021/06/29 11:06:34;;;;;;;9.52;2.50;;;;;;;;;;5071505;28;20045;-59
2021/06/29 11:09:01;;;;;;;7.47;2.67;;;;;;;;;;5067331;28;20072;-59
2021/06/29 11:11:29;;;;;;;7.10;2.28;;;;;;;;;;5068832;28;20115;-59
2021/06/29 11:13:56;;;;;;;4.47;2.20;;;;;;;;;;5067866;28;20392;-59
2021/06/29 11:16:42;;;;;;;7.22;2.63;;;;;;;;;;5071319;28;20054;-59
2021/06/29 11:19:09;;;;;;;6.18;2.80;;;;;;;;;;5072928;28;20055;-59
2021/06/29 11:21:36;;;;;;;8.50;2.78;;;;;;;;;;5071635;28;20049;-59
2021/06/29 11:24:22;;;;;;;8.98;2.92;;;;;;;;;;5068382;28;20040;-59
2021/06/29 11:26:48;;;;;;;7.68;2.85;;;;;;;;;;5068973;28;20125;-59
2021/06/29 11:29:15;;;;;;;15.80;3.53;;;;;;;;;;5072669;28;20485;-59
2021/06/29 11:31:42;;;;;;;9.00;3.40;;;;;;;;;;5068485;28;20629;-59
2021/06/29 11:34:12;;;;;;;14.35;3.67;;;;;;;;;;5070574;28;20044;-59
2021/06/29 11:36:43;;;;;;;8.00;3.30;;;;;;;;;;5067823;28;20060;-59
2021/06/29 11:39:17;;;;;;;5.80;3.00;;;;;;;;;;5063290;28;20037;-59
2021/06/29 11:41:53;;;;;;;8.25;3.80;;;;;;;;;;5067719;28;20040;-59
2021/06/29 11:44:20;;;;;;;7.68;3.45;;;;;;;;;;5068033;28;20519;-59
2021/06/29 11:46:46;;;;;;;11.82;3.45;;;;;;;;;;5070214;28;20044;-59
2021/06/29 11:49:40;;;;;;;11.85;3.80;;;;;;;;;;5067395;28;20044;-59
2021/06/29 11:52:07;;;;;;;9.27;4.10;;;;;;;;;;5070213;28;20076;-59
2021/06/29 11:54:37;;;;;;;9.50;3.70;;;;;;;;;;5070858;28;20050;-59
2021/06/29 11:57:24;;;;;;;9.55;3.95;;;;;;;;;;5070469;28;20530;-59
2021/06/29 11:59:52;;;;;;;11.60;3.78;;;;;;;;;;5069502;28;20067;-59
2021/06/29 12:02:20;;;;;;;10.68;4.10;;;;;;;;;;5068576;28;20036;-59
2021/06/29 12:04:53;;;;;;;12.57;4.00;;;;;;;;;;5069448;28;20048;-59
2021/06/29 12:07:29;;;;;;;9.32;3.75;;;;;;;;;;5070341;28;20052;-59
2021/06/29 12:09:56;;;;;;;8.82;4.07;;;;;;;;;;5070206;28;20071;-59
2021/06/29 12:12:24;;;;;;;10.75;3.80;;;;;;;;;;5070085;28;20389;-59
2021/06/29 12:15:17;;;;;;;6.18;3.38;;;;;;;;;;5069950;28;20520;-59
2021/06/29 12:17:47;;;;;;;7.13;3.65;;;;;;;;;;5037711;28;20882;-59
2021/06/29 12:20:13;;;;;;;10.30;4.38;;;;;;;;;;5070217;28;20102;-59
2021/06/29 12:22:41;;;;;;;13.10;5.20;;;;;;;;;;5070595;28;20110;-59
2021/06/29 12:25:11;;;;;;;11.25;5.68;;;;;;;;;;5067452;28;20411;-60
2021/06/29 12:27:44;;;;;;;12.18;6.35;;;;;;;;;;5065909;28;20047;-59
2021/06/29 12:30:22;;;;;;;13.15;5.57;;;;;;;;;;5069898;28;20044;-59
2021/06/29 12:32:52;;;;;;;12.27;5.65;;;;;;;;;;5066443;28;20053;-59
2021/06/29 12:35:20;;;;;;;13.25;6.00;;;;;;;;;;5066918;28;20064;-59
2021/06/29 12:37:51;;;;;;;17.52;6.15;;;;;;;;;;5068832;28;20048;-59
2021/06/29 12:40:18;;;;;;;12.23;5.78;;;;;;;;;;5067654;28;20052;-59
2021/06/29 12:42:45;;;;;;;11.00;5.47;;;;;;;;;;5067410;28;20039;-59
2021/06/29 12:45:12;;;;;;;14.80;6.45;;;;;;;;;;5066706;28;20045;-59
2021/06/29 12:47:39;;;;;;;13.13;6.50;;;;;;;;;;5067223;28;20056;-59
2021/06/29 12:50:06;;;;;;;17.75;6.85;;;;;;;;;;5068518;28;20048;-59
2021/06/29 12:52:36;;;;;;;12.27;5.80;;;;;;;;;;5068343;28;20124;-59
2021/06/29 12:55:07;;;;;;;18.63;6.85;;;;;;;;;;5068979;28;20045;-59
2021/06/29 12:57:39;;;;;;;22.80;6.65;;;;;;;;;;5069181;28;20048;-59
2021/06/29 13:00:08;;;;;;;16.02;6.72;;;;;;;;;;5069061;28;20036;-59
2021/06/29 13:02:41;;;;;;;17.55;6.82;;;;;;;;;;5065920;28;20193;-59
2021/06/29 13:05:22;;;;;;;12.80;7.07;;;;;;;;;;5069082;28;20476;-59
2021/06/29 13:07:49;;;;;;;14.10;6.50;;;;;;;;;;5067484;28;20044;-59
2021/06/29 13:10:16;;;;;;;12.13;6.10;;;;;;;;;;5069176;28;20044;-59
2021/06/29 13:12:44;;;;;;;14.00;6.32;;;;;;;;;;5079573;28;20083;-59
2021/06/29 13:15:12;;;;;;;12.13;6.70;;;;;;;;;;5061874;28;20484;-59
2021/06/29 13:17:48;;;;;;;13.57;7.80;;;;;;;;;;5066510;28;20071;-59
2021/06/29 13:20:19;;;;;;;11.93;7.13;;;;;;;;;;5065469;28;20093;-59
2021/06/29 13:22:49;;;;;;;11.15;6.50;;;;;;;;;;5068529;28;20052;-59
2021/06/29 13:25:29;;;;;;;10.23;6.75;;;;;;;;;;5067923;28;20044;-59
2021/06/29 13:28:07;;;;;;;14.38;6.63;;;;;;;;;;5067016;28;20063;-59
2021/06/29 13:30:34;;;;;;;14.13;6.85;;;;;;;;;;5069779;28;20119;-59
2021/06/29 13:33:05;;;;;;;16.23;7.38;;;;;;;;;;5066161;28;20155;-59
2021/06/29 13:35:32;;;;;;;10.15;6.00;;;;;;;;;;5067484;28;20060;-59
2021/06/29 13:37:59;;;;;;;11.32;6.50;;;;;;;;;;5067227;28;20083;-59
2021/06/29 13:40:28;;;;;;;;;;;;;;;;;;5067732;28;20056;-59
2021/06/29 13:42:57;;;;;;;;;;;;;;;;;;5069276;28;19920;-59
2021/06/29 13:45:31;;;;;;;10.40;4.97;;;;;;;;;;5068543;28;19924;-59
2021/06/29 13:47:58;;;;;;;14.63;5.63;;;;;;;;;;5067671;28;20446;-59
2021/06/29 13:50:31;;;;;;;9.50;5.35;;;;;;;;;;5070312;28;20048;-59
2021/06/29 13:52:59;;;;;;;10.13;5.07;;;;;;;;;;5064929;28;20044;-59
2021/06/29 13:55:31;;;;;;;10.45;5.30;;;;;;;;;;5068032;28;20399;-59
2021/06/29 13:58:34;;;;;;;8.93;5.43;;;;;;;;;;5066865;28;20048;-59
2021/06/29 14:01:07;;;;;;;12.18;6.13;;;;;;;;;;4986219;28;20145;-59
2021/06/29 14:03:34;;;;;;;11.88;5.70;;;;;;;;;;5055189;28;20049;-59
2021/06/29 14:06:11;;;;;;;15.38;5.32;;;;;;;;;;5068393;28;20066;-59
2021/06/29 14:08:41;;;;;;;7.93;4.20;;;;;;;;;;5066194;28;20133;-59
2021/06/29 14:11:18;;;;;;;8.13;4.40;;;;;;;;;;5068673;28;20404;-59
2021/06/29 14:13:57;;;;;;;7.65;4.50;;;;;;;;;;5070072;28;20492;-59
2021/06/29 14:16:25;;;;;;;6.43;4.40;;;;;;;;;;5071216;28;20083;-59
2021/06/29 14:18:52;;;;;;;10.30;4.30;;;;;;;;;;5068016;28;20044;-59
2021/06/29 14:21:19;;;;;;;;;;;;;;;;;;5070938;28;20076;-59
2021/06/29 14:23:47;;;;;;;8.07;4.00;;;;;;;;;;5070975;28;19947;-59
2021/06/29 14:26:14;;;;;;;7.47;4.45;;;;;;;;;;5069780;28;20136;-59
2021/06/29 14:28:41;;;;;;;10.02;4.70;;;;;;;;;;5071664;28;20052;-59
2021/06/29 14:31:07;;;;;;;12.68;4.78;;;;;;;;;;5068956;28;20079;-59
2021/06/29 14:33:37;;;;;;;11.88;4.18;;;;;;;;;;5065530;28;20058;-59
2021/06/29 14:36:04;;;;;;;11.65;4.90;;;;;;;;;;5071345;28;20044;-59
2021/06/29 14:38:31;;;;;;;15.75;5.55;;;;;;;;;;5071316;28;20052;-59
2021/06/29 14:40:59;;;;;;;9.10;5.15;;;;;;;;;;5071315;28;20049;-59
2021/06/29 14:43:25;;;;;;;11.32;5.88;;;;;;;;;;5067398;28;20573;-59
2021/06/29 14:45:52;;;;;;;;;;;;;;;;;;5071005;28;20032;-59
2021/06/29 14:48:19;;;;;;;13.32;5.57;;;;;;;;;;5071410;28;19920;-59
2021/06/29 14:50:46;;;;;;;;;;;;;;;;;;5072052;28;20044;-59
2021/06/29 14:53:13;;;;;;;12.10;5.45;;;;;;;;;;5071878;28;20452;-59
2021/06/29 14:55:40;;;;;;;8.93;6.07;;;;;;;;;;5071992;28;20578;-59
2021/06/29 14:58:08;;;;;;;12.68;5.78;;;;;;;;;;5070758;28;20047;-59
2021/06/29 15:00:34;;;;;;;;;;;;;;;;;;5072497;28;20045;-59
2021/06/29 15:03:02;;;;;;;14.38;5.82;;;;;;;;;;5067559;28;20319;-59
2021/06/29 15:05:28;;;;;;;;;;;;;;;;;;5068607;28;20072;-59
2021/06/29 15:07:56;;;;;;;14.05;5.40;;;;;;;;;;5071372;28;20367;-59
2021/06/29 15:10:22;;;;;;;9.88;5.32;;;;;;;;;;5070882;28;20037;-59
2021/06/29 15:12:51;;;;;;;11.13;5.20;;;;;;;;;;5071206;28;20105;-59
2021/06/29 15:15:18;;;;;;;9.63;5.45;;;;;;;;;;5070917;28;20036;-59
2021/06/29 15:17:45;;;;;;;13.25;5.75;;;;;;;;;;5070424;28;20583;-59
2021/06/29 15:20:20;;;;;;;11.50;5.95;;;;;;;;;;5067559;28;20035;-59
2021/06/29 15:22:48;;;;;;;13.27;5.40;;;;;;;;;;5069453;28;20039;-59
2021/06/29 15:25:17;;;;;;;11.98;5.25;;;;;;;;;;5070402;28;20036;-59
2021/06/29 15:27:44;;;;;;;12.55;5.40;;;;;;;;;;5071467;28;20048;-59
2021/06/29 15:30:12;;;;;;;12.35;4.65;;;;;;;;;;5071288;28;20040;-59
2021/06/29 15:32:38;;;;;;;10.95;4.68;;;;;;;;;;5069889;28;20044;-59
2021/06/29 15:35:06;;;;;;;9.10;4.72;;;;;;;;;;5071211;28;20054;-59
2021/06/29 15:37:34;;;;;;;10.48;4.68;;;;;;;;;;5070495;28;20068;-59
2021/06/29 15:40:03;;;;;;;14.45;5.22;;;;;;;;;;5069293;28;20051;-59
2021/06/29 15:42:30;;;;;;;11.77;4.78;;;;;;;;;;5070930;28;20083;-59
2021/06/29 15:45:02;;;;;;;16.67;5.72;;;;;;;;;;5067315;28;20041;-59
2021/06/29 15:47:29;;;;;;;11.48;4.85;;;;;;;;;;5069825;28;20052;-59
2021/06/29 15:49:56;;;;;;;10.90;5.00;;;;;;;;;;5070857;28;20063;-59
2021/06/29 15:52:23;;;;;;;14.45;5.93;;;;;;;;;;5070249;28;20396;-59
2021/06/29 15:54:50;;;;;;;11.45;4.75;;;;;;;;;;5068286;28;20547;-59
2021/06/29 15:57:19;;;;;;;16.75;5.72;;;;;;;;;;5069172;28;20036;-59
2021/06/29 15:59:47;;;;;;;11.45;5.03;;;;;;;;;;5070217;28;20036;-59
2021/06/29 16:02:13;;;;;;;;;;;;;;;;;;5068973;28;20051;-59
2021/06/29 16:04:40;;;;;;;11.77;4.90;;;;;;;;;;5068693;28;20261;-59
2021/06/29 16:07:06;;;;;;;13.05;5.50;;;;;;;;;;5068361;28;20045;-59
2021/06/29 16:09:33;;;;;;;15.75;5.28;;;;;;;;;;5070390;28;20796;-59
2021/06/29 16:12:00;;;;;;;12.60;5.68;;;;;;;;;;5069664;28;20032;-59
2021/06/29 16:14:27;;;;;;;;;;;;;;;;;;5071124;28;20044;-59
2021/06/29 16:16:54;;;;;;;10.45;4.97;;;;;;;;;;5069615;28;19924;-59
2021/06/29 16:19:24;;;;;;;12.45;4.80;;;;;;;;;;5070225;28;20036;-59
2021/06/29 16:21:52;;;;;;;12.88;5.10;;;;;;;;;;5068510;28;20037;-59
2021/06/29 16:24:19;;;;;;;11.88;4.43;;;;;;;;;;5069596;28;20042;-59
2021/06/29 16:26:45;;;;;;;11.53;5.50;;;;;;;;;;5065015;28;20098;-59
2021/06/29 16:29:12;;;;;;;12.93;5.82;;;;;;;;;;5066069;28;20044;-59
2021/06/29 16:31:39;;;;;;;16.58;5.93;;;;;;;;;;5066817;28;20492;-59
2021/06/29 16:34:06;;;;;;;12.23;4.90;;;;;;;;;;5068471;28;20434;-59
2021/06/29 16:36:33;;;;;;;13.35;5.18;;;;;;;;;;5068181;28;20048;-59
2021/06/29 16:39:00;;;;;;;16.70;6.28;;;;;;;;;;5067444;28;20040;-59
2021/06/29 16:41:26;;;;;;;12.50;5.97;;;;;;;;;;5067663;28;20479;-59
2021/06/29 16:43:58;;;;;;;12.15;5.28;;;;;;;;;;5065624;28;20040;-59
2021/06/29 16:46:26;;;;;;;13.23;5.97;;;;;;;;;;5064960;28;20043;-59
2021/06/29 16:48:53;;;;;;;18.67;6.20;;;;;;;;;;5068927;28;20416;-59
2021/06/29 16:51:21;;;;;;;13.55;5.82;;;;;;;;;;5067508;28;20404;-59
2021/06/29 16:53:50;;;;;;;15.57;5.93;;;;;;;;;;5062402;28;20045;-59
2021/06/29 16:56:18;;;;;;;19.52;6.05;;;;;;;;;;5064716;28;20484;-59
2021/06/29 16:58:49;;;;;;;13.85;6.22;;;;;;;;;;5064725;28;20562;-59
2021/06/29 17:01:16;;;;;;;12.80;5.45;;;;;;;;;;5065816;28;20049;-59
2021/06/29 17:03:43;;;;;;;17.45;6.30;;;;;;;;;;5063515;28;20052;-58
2021/06/29 17:06:30;;;;;;;10.88;5.32;;;;;;;;;;5064337;28;20040;-59
2021/06/29 17:08:57;;;;;;;10.87;6.07;;;;;;;;;;5063786;28;20051;-58
2021/06/29 17:11:26;;;;;;;16.65;6.10;;;;;;;;;;5068618;28;20048;-59
2021/06/29 17:13:55;;;;;;;13.13;5.57;;;;;;;;;;5066429;28;20044;-58
2021/06/29 17:16:21;;;;;;;15.48;6.50;;;;;;;;;;5063701;28;20049;-58
2021/06/29 17:18:48;;;;;;;16.05;6.50;;;;;;;;;;5066588;28;20055;-59
2021/06/29 17:21:15;;;;;;;16.60;6.22;;;;;;;;;;5064214;28;20033;-58
2021/06/29 17:23:42;;;;;;;14.93;5.80;;;;;;;;;;5066878;28;20048;-60
2021/06/29 17:26:11;;;;;;;14.13;5.30;;;;;;;;;;5067201;28;20052;-60
2021/06/29 17:28:37;;;;;;;16.63;6.20;;;;;;;;;;5065360;28;20049;-59
2021/06/29 17:31:04;;;;;;;18.30;6.47;;;;;;;;;;5066299;28;20060;-60
2021/06/29 17:33:31;;;;;;;;;;;;;;;;;;5065797;28;20044;-60
2021/06/29 17:36:04;;;;;;;11.13;6.43;;;;;;;;;;5066514;28;19931;-61
2021/06/29 17:38:31;;;;;;;11.85;6.07;;;;;;;;;;5066052;28;20048;-60
2021/06/29 17:41:00;;;;;;;14.30;6.32;;;;;;;;;;5065866;28;20045;-60
2021/06/29 21:31:32;;;;;;;26.90;12.57;;;;;;;;;;5046690;28;20475;-60
